createdAt,value
2019-05-03T00:00:42.557Z,10.40
2019-05-03T00:03:12.740Z,10.40
2019-05-03T00:05:42.811Z,10.40
2019-05-03T00:08:12.637Z,10.40
2019-05-03T00:10:42.501Z,10.40
2019-05-03T00:13:12.507Z,10.40
2019-05-03T00:15:42.926Z,10.50
2019-05-03T00:18:11.761Z,10.60
2019-05-03T00:20:41.988Z,10.40
2019-05-03T00:23:12.009Z,10.50
2019-05-03T00:25:41.818Z,10.30
2019-05-03T00:28:10.841Z,10.20
2019-05-03T00:30:39.236Z,10.20
2019-05-03T00:33:07.628Z,10.30
2019-05-03T00:35:43.522Z,10.20
2019-05-03T00:38:12.798Z,10.30
2019-05-03T00:40:41.703Z,10.30
2019-05-03T00:43:11.580Z,10.30
2019-05-03T00:45:42.135Z,10.20
2019-05-03T00:48:10.140Z,10.30
2019-05-03T00:50:38.493Z,10.40
2019-05-03T00:53:06.880Z,10.50
2019-05-03T00:55:35.247Z,10.40
2019-05-03T00:58:03.686Z,10.40
2019-05-03T01:00:32.570Z,10.30
2019-05-03T01:03:02.140Z,10.30
2019-05-03T01:05:32.952Z,10.10
2019-05-03T01:08:01.974Z,10.00
2019-05-03T01:10:30.489Z,10.20
2019-05-03T01:12:58.852Z,10.20
2019-05-03T01:15:32.047Z,10.30
2019-05-03T01:18:02.100Z,10.30
2019-05-03T01:20:31.997Z,10.30
2019-05-03T01:23:02.076Z,10.20
2019-05-03T01:25:35.145Z,10.30
2019-05-03T01:28:01.555Z,10.20
2019-05-03T01:30:31.950Z,10.00
2019-05-03T01:33:02.670Z,10.10
2019-05-03T01:35:32.303Z,9.90
2019-05-03T01:38:02.596Z,10.10
2019-05-03T01:40:32.574Z,10.10
2019-05-03T01:43:02.219Z,10.00
2019-05-03T01:45:31.833Z,10.00
2019-05-03T01:48:02.118Z,10.00
2019-05-03T01:50:47.544Z,9.80
2019-05-03T01:53:17.620Z,9.70
2019-05-03T01:55:52.711Z,9.70
2019-05-03T01:58:24.372Z,9.80
2019-05-03T02:00:54.424Z,9.80
2019-05-03T02:03:24.448Z,9.80
2019-05-03T02:05:54.368Z,9.90
2019-05-03T02:08:22.710Z,9.80
2019-05-03T02:10:51.764Z,9.80
2019-05-03T02:13:20.323Z,9.90
2019-05-03T02:15:48.696Z,9.80
2019-05-03T02:18:17.074Z,9.80
2019-05-03T02:20:45.428Z,9.80
2019-05-03T02:23:13.782Z,9.80
2019-05-03T02:25:42.167Z,9.90
2019-05-03T02:28:12.490Z,9.90
2019-05-03T02:30:44.197Z,9.80
2019-05-03T02:33:13.456Z,9.80
2019-05-03T02:35:42.974Z,9.90
2019-05-03T02:38:12.997Z,9.70
2019-05-03T02:40:42.915Z,9.70
2019-05-03T02:43:13.275Z,9.70
2019-05-03T02:45:51.402Z,9.80
2019-05-03T02:48:25.500Z,9.50
2019-05-03T02:50:56.037Z,9.50
2019-05-03T02:53:25.818Z,9.60
2019-05-03T02:55:56.068Z,9.60
2019-05-03T02:58:25.495Z,9.60
2019-05-03T03:00:56.991Z,9.50
2019-05-03T03:03:26.218Z,9.70
2019-05-03T03:05:56.553Z,9.60
2019-05-03T03:08:27.648Z,9.60
2019-05-03T03:11:02.113Z,9.70
2019-05-03T03:13:31.694Z,9.60
2019-05-03T03:16:02.962Z,9.60
2019-05-03T03:18:36.375Z,9.70
2019-05-03T03:21:05.890Z,9.60
2019-05-03T03:23:49.638Z,9.70
2019-05-03T03:26:33.304Z,9.60
2019-05-03T03:28:50.937Z,9.50
2019-05-03T03:31:37.865Z,9.60
2019-05-03T03:34:08.620Z,9.60
2019-05-03T03:36:59.271Z,9.70
2019-05-03T03:39:16.636Z,9.80
2019-05-03T03:41:45.670Z,9.80
2019-05-03T03:44:15.323Z,9.80
2019-05-03T03:46:45.426Z,9.60
2019-05-03T03:49:15.530Z,9.50
2019-05-03T03:51:45.552Z,9.60
2019-05-03T03:54:17.365Z,9.70
2019-05-03T03:56:56.148Z,9.60
2019-05-03T03:59:15.986Z,9.70
2019-05-03T04:01:45.702Z,9.60
2019-05-03T04:04:16.089Z,9.60
2019-05-03T04:06:46.613Z,9.50
2019-05-03T04:09:16.117Z,9.50
2019-05-03T04:11:46.347Z,9.50
2019-05-03T04:14:16.506Z,9.40
2019-05-03T04:16:50.767Z,9.30
2019-05-03T04:19:20.822Z,9.40
2019-05-03T04:21:49.183Z,9.30
2019-05-03T04:24:17.528Z,9.30
2019-05-03T04:26:45.920Z,9.10
2019-05-03T04:29:16.134Z,9.40
2019-05-03T04:31:45.767Z,9.50
2019-05-03T04:34:16.279Z,9.70
2019-05-03T04:36:46.161Z,9.70
2019-05-03T04:39:19.166Z,9.70
2019-05-03T04:41:45.353Z,9.70
2019-05-03T04:44:15.490Z,9.70
2019-05-03T04:46:46.262Z,9.70
2019-05-03T04:49:15.173Z,9.60
2019-05-03T04:51:46.447Z,9.60
2019-05-03T04:54:25.244Z,9.60
2019-05-03T04:56:56.381Z,9.60
2019-05-03T04:59:25.499Z,9.70
2019-05-03T05:01:55.993Z,9.70
2019-05-03T05:04:25.402Z,9.70
2019-05-03T05:06:55.527Z,9.80
2019-05-03T05:09:25.832Z,9.80
2019-05-03T05:11:54.945Z,9.80
2019-05-03T05:14:25.675Z,9.80
2019-05-03T05:17:06.162Z,9.80
2019-05-03T05:19:42.242Z,9.80
2019-05-03T05:22:15.624Z,9.80
2019-05-03T05:24:44.967Z,10.00
2019-05-03T05:27:15.168Z,10.00
2019-05-03T05:29:45.070Z,10.10
2019-05-03T05:32:14.469Z,10.00
2019-05-03T05:34:42.920Z,10.00
2019-05-03T05:37:14.526Z,10.00
2019-05-03T05:39:44.655Z,10.00
2019-05-03T05:42:16.344Z,10.10
2019-05-03T05:44:45.468Z,10.00
2019-05-03T05:47:15.601Z,10.10
2019-05-03T05:49:48.300Z,10.00
2019-05-03T05:52:16.609Z,10.00
2019-05-03T05:54:46.668Z,10.00
2019-05-03T05:57:34.656Z,10.00
2019-05-03T06:00:08.283Z,10.00
2019-05-03T06:02:36.673Z,10.10
2019-05-03T06:05:06.110Z,10.20
2019-05-03T06:07:42.037Z,10.30
2019-05-03T06:10:21.211Z,10.30
2019-05-03T06:12:51.174Z,10.20
2019-05-03T06:15:21.135Z,10.20
2019-05-03T06:17:51.099Z,10.30
2019-05-03T06:20:24.575Z,10.30
2019-05-03T06:22:54.975Z,10.30
2019-05-03T06:25:26.601Z,10.30
2019-05-03T06:27:55.199Z,10.30
2019-05-03T06:30:30.914Z,10.40
2019-05-03T06:32:59.260Z,10.40
2019-05-03T06:35:27.852Z,10.50
2019-05-03T06:37:56.730Z,10.40
2019-05-03T06:40:26.067Z,10.50
2019-05-03T06:43:02.895Z,10.40
2019-05-03T06:45:25.154Z,10.40
2019-05-03T06:47:55.089Z,10.50
2019-05-03T06:50:27.526Z,10.40
2019-05-03T06:52:54.794Z,10.50
2019-05-03T06:55:24.746Z,10.50
2019-05-03T06:57:54.595Z,10.50
2019-05-03T07:00:35.123Z,10.60
2019-05-03T07:03:05.253Z,10.60
2019-05-03T07:05:35.486Z,10.60
2019-05-03T07:08:22.045Z,10.60
2019-05-03T07:10:52.390Z,10.60
2019-05-03T07:13:20.780Z,10.70
2019-05-03T07:15:49.109Z,10.70
2019-05-03T07:18:17.417Z,10.80
2019-05-03T07:20:50.340Z,10.60
2019-05-03T07:23:18.690Z,10.50
2019-05-03T07:25:46.998Z,10.60
2019-05-03T07:28:15.292Z,10.60
2019-05-03T07:30:45.375Z,10.70
2019-05-03T07:33:21.259Z,10.70
2019-05-03T07:35:49.595Z,10.80
2019-05-03T07:38:17.904Z,10.80
2019-05-03T07:40:46.305Z,10.70
2019-05-03T07:43:14.927Z,10.70
2019-05-03T07:45:44.657Z,10.80
2019-05-03T07:48:14.934Z,10.90
2019-05-03T07:50:44.715Z,10.90
2019-05-03T07:53:15.004Z,10.80
2019-05-03T07:55:59.926Z,10.90
2019-05-03T07:58:29.914Z,10.90
2019-05-03T08:01:06.291Z,10.70
2019-05-03T08:03:29.985Z,10.90
2019-05-03T08:05:58.744Z,11.00
2019-05-03T08:08:27.028Z,11.00
2019-05-03T08:10:55.350Z,10.90
2019-05-03T08:16:35.324Z,11.00
2019-05-03T08:19:04.884Z,11.10
2019-05-03T08:21:38.164Z,11.00
2019-05-03T08:24:04.558Z,11.00
2019-05-03T08:26:35.056Z,10.90
2019-05-03T08:29:15.238Z,11.00
2019-05-03T08:31:37.851Z,11.20
2019-05-03T08:34:15.356Z,11.20
2019-05-03T08:37:05.225Z,11.20
2019-05-03T08:39:35.558Z,11.20
2019-05-03T08:42:08.207Z,11.10
2019-05-03T08:44:36.911Z,11.20
2019-05-03T08:47:05.383Z,11.30
2019-05-03T08:49:34.734Z,11.30
2019-05-03T08:52:05.276Z,11.30
2019-05-03T08:54:34.729Z,11.40
2019-05-03T08:57:03.390Z,11.30
2019-05-03T08:59:32.738Z,11.20
2019-05-03T09:02:03.506Z,11.30
2019-05-03T09:04:37.403Z,11.30
2019-05-03T09:07:01.614Z,11.30
2019-05-03T09:09:34.867Z,11.20
2019-05-03T09:12:04.715Z,11.20
2019-05-03T09:14:42.544Z,11.30
2019-05-03T09:17:04.959Z,11.30
2019-05-03T09:19:34.685Z,11.30
2019-05-03T09:22:05.956Z,11.30
2019-05-03T09:24:35.158Z,11.20
2019-05-03T09:27:05.102Z,11.30
2019-05-03T09:29:41.086Z,11.50
2019-05-03T09:32:05.163Z,11.40
2019-05-03T09:34:35.157Z,11.40
2019-05-03T09:37:04.773Z,11.40
2019-05-03T09:39:35.310Z,11.50
2019-05-03T09:42:04.725Z,11.60
2019-05-03T09:44:35.047Z,11.50
2019-05-03T09:47:05.396Z,11.50
2019-05-03T09:49:34.767Z,11.60
2019-05-03T09:52:07.977Z,11.60
2019-05-03T09:54:41.036Z,11.60
2019-05-03T09:57:09.325Z,11.60
2019-05-03T09:59:37.634Z,11.50
2019-05-03T10:02:06.313Z,11.60
2019-05-03T10:04:36.678Z,11.50
2019-05-03T10:07:04.748Z,11.50
2019-05-03T10:09:35.410Z,11.60
2019-05-03T10:12:05.564Z,11.60
2019-05-03T10:14:34.132Z,11.50
2019-05-03T10:17:09.886Z,11.60
2019-05-03T10:19:40.499Z,11.60
2019-05-03T10:22:08.293Z,11.50
2019-05-03T10:24:36.620Z,11.50
2019-05-03T10:27:05.585Z,11.50
2019-05-03T10:29:34.094Z,11.60
2019-05-03T10:32:04.074Z,11.60
2019-05-03T10:34:32.366Z,11.60
2019-05-03T10:37:00.659Z,11.50
2019-05-03T10:39:28.989Z,11.60
2019-05-03T10:41:57.288Z,11.70
2019-05-03T10:44:25.897Z,11.60
2019-05-03T10:46:55.946Z,11.70
2019-05-03T10:49:24.571Z,11.70
2019-05-03T10:51:54.910Z,11.50
2019-05-03T10:54:23.457Z,11.60
2019-05-03T10:57:02.694Z,11.70
2019-05-03T10:59:31.071Z,11.50
2019-05-03T11:02:01.027Z,11.50
2019-05-03T11:04:30.282Z,11.60
2019-05-03T11:06:58.656Z,11.50
2019-05-03T11:09:26.959Z,11.50
2019-05-03T11:11:55.658Z,11.50
2019-05-03T11:14:25.400Z,11.70
2019-05-03T11:16:55.292Z,11.70
2019-05-03T11:19:25.464Z,11.70
2019-05-03T11:21:54.773Z,11.60
2019-05-03T11:24:25.151Z,11.60
2019-05-03T11:26:55.816Z,11.90
2019-05-03T11:29:24.756Z,12.00
2019-05-03T11:31:57.622Z,11.90
2019-05-03T11:34:30.350Z,12.00
2019-05-03T11:37:06.353Z,12.00
2019-05-03T11:39:34.674Z,12.30
2019-05-03T11:42:04.665Z,12.30
2019-05-03T11:44:39.161Z,12.30
2019-05-03T11:47:08.192Z,12.10
2019-05-03T11:49:36.643Z,12.30
2019-05-03T11:52:06.549Z,12.50
2019-05-03T12:17:07.741Z,12.50
2019-05-03T12:19:12.749Z,12.50
2019-05-03T12:21:31.360Z,12.50
2019-05-03T12:24:16.914Z,12.60
2019-05-03T12:26:47.060Z,12.60
2019-05-03T12:29:15.505Z,12.50
2019-05-03T12:31:45.582Z,12.50
2019-05-03T12:34:15.928Z,12.60
2019-05-03T12:36:44.139Z,12.60
2019-05-03T12:39:24.197Z,12.60
2019-05-03T12:41:42.549Z,12.70
2019-05-03T12:44:10.872Z,12.60
2019-05-03T12:46:39.187Z,12.40
2019-05-03T12:49:07.499Z,12.50
2019-05-03T12:51:35.803Z,12.50
2019-05-03T12:54:04.861Z,12.50
2019-05-03T12:56:35.738Z,12.50
2019-05-03T12:59:05.782Z,12.50
2019-05-03T13:01:41.890Z,12.50
2019-05-03T13:04:24.701Z,12.40
2019-05-03T13:07:10.938Z,12.40
2019-05-03T13:09:39.230Z,12.50
2019-05-03T13:12:09.104Z,12.50
2019-05-03T13:14:37.446Z,12.50
2019-05-03T13:17:05.757Z,12.20
2019-05-03T13:19:34.929Z,12.20
2019-05-03T13:22:03.393Z,12.30
2019-05-03T13:24:31.713Z,12.40
2019-05-03T13:27:00.019Z,12.40
2019-05-03T13:29:28.363Z,12.40
2019-05-03T13:32:01.900Z,12.30
2019-05-03T13:34:26.679Z,12.20
2019-05-03T13:36:55.065Z,12.20
2019-05-03T13:39:26.332Z,12.30
2019-05-03T13:41:54.942Z,12.30
2019-05-03T13:44:24.778Z,12.50
2019-05-03T13:46:55.193Z,12.40
2019-05-03T13:49:26.188Z,12.40
2019-05-03T13:51:53.821Z,12.60
2019-05-03T13:54:22.422Z,12.70
2019-05-03T13:56:50.755Z,12.80
2019-05-03T13:59:22.101Z,12.70
2019-05-03T14:01:49.165Z,12.80
2019-05-03T14:04:17.475Z,12.80
2019-05-03T14:17:16.424Z,13.10
2019-05-03T14:19:45.212Z,13.00
2019-05-03T14:22:15.591Z,12.90
2019-05-03T14:24:44.579Z,13.00
2019-05-03T14:27:14.467Z,13.00
2019-05-03T14:29:42.918Z,13.20
2019-05-03T14:32:11.268Z,13.20
2019-05-03T14:34:39.570Z,13.20
2019-05-03T14:37:07.877Z,13.20
2019-05-03T14:39:36.249Z,13.10
2019-05-03T14:42:04.825Z,13.00
2019-05-03T14:44:35.571Z,12.90
2019-05-03T14:47:05.616Z,12.80
2019-05-03T14:49:34.611Z,13.00
2019-05-03T14:52:05.412Z,13.00
2019-05-03T14:54:34.837Z,13.00
2019-05-03T14:57:04.801Z,13.00
2019-05-03T14:59:45.319Z,13.00
2019-05-03T15:02:21.510Z,13.00
2019-05-03T15:04:50.264Z,13.00
2019-05-03T15:10:02.218Z,12.90
2019-05-03T15:12:30.525Z,12.90
2019-05-03T15:14:58.825Z,13.20
2019-05-03T15:17:27.154Z,13.10
2019-05-03T15:19:55.461Z,13.00
2019-05-03T15:22:25.318Z,13.00
2019-05-03T15:24:54.559Z,13.10
2019-05-03T15:27:24.846Z,13.00
2019-05-03T15:29:55.355Z,13.10
2019-05-03T15:32:23.386Z,13.00
2019-05-03T15:34:51.695Z,13.10
2019-05-03T15:37:20.019Z,13.10
2019-05-03T15:39:48.624Z,13.40
2019-05-03T15:42:18.002Z,13.30
2019-05-03T15:44:48.276Z,13.40
2019-05-03T15:47:18.298Z,13.50
2019-05-03T15:49:46.642Z,13.60
2019-05-03T15:52:15.241Z,13.40
2019-05-03T15:54:44.477Z,13.40
2019-05-03T15:57:14.471Z,13.50
2019-05-03T15:59:44.537Z,13.50
2019-05-03T16:02:15.097Z,13.40
2019-05-03T16:04:44.797Z,13.40
2019-05-03T16:07:14.434Z,13.60
2019-05-03T16:09:44.469Z,13.50
2019-05-03T16:12:14.553Z,13.50
2019-05-03T16:14:44.523Z,13.40
2019-05-03T16:17:14.614Z,13.30
2019-05-03T16:19:47.370Z,13.40
2019-05-03T16:22:14.368Z,13.40
2019-05-03T16:24:44.756Z,13.40
2019-05-03T16:27:29.967Z,13.30
2019-05-03T16:29:58.882Z,13.20
2019-05-03T16:32:27.166Z,13.20
2019-05-03T16:34:55.477Z,13.30
2019-05-03T16:37:25.484Z,13.20
2019-05-03T16:39:54.768Z,13.30
2019-05-03T16:42:24.636Z,13.30
2019-05-03T16:44:54.887Z,13.30
2019-05-03T16:47:24.954Z,13.30
2019-05-03T16:49:53.385Z,13.20
2019-05-03T16:52:21.707Z,13.20
2019-05-03T16:54:50.396Z,13.00
2019-05-03T16:57:18.731Z,12.90
2019-05-03T16:59:47.056Z,13.00
2019-05-03T17:02:17.382Z,13.10
2019-05-03T17:05:02.498Z,13.00
2019-05-03T17:07:32.437Z,13.00
2019-05-03T17:10:07.483Z,13.10
2019-05-03T17:12:37.298Z,13.00
2019-05-03T17:15:08.454Z,13.00
2019-05-03T17:17:36.762Z,13.20
2019-05-03T17:20:08.206Z,13.00
2019-05-03T17:22:36.861Z,13.10
2019-05-03T17:25:06.562Z,13.00
2019-05-03T17:27:35.085Z,13.00
2019-05-03T17:30:05.833Z,12.80
2019-05-03T17:32:35.081Z,12.90
2019-05-03T17:35:05.744Z,12.70
2019-05-03T17:37:34.696Z,12.80
2019-05-03T17:40:07.663Z,12.80
2019-05-03T17:42:54.726Z,12.80
2019-05-03T17:45:25.364Z,12.70
2019-05-03T17:47:54.871Z,12.80
2019-05-03T17:50:23.411Z,12.70
2019-05-03T17:52:54.594Z,12.70
2019-05-03T17:55:36.459Z,12.60
2019-05-03T17:58:09.297Z,12.60
2019-05-03T18:00:39.271Z,12.60
2019-05-03T18:03:08.745Z,12.60
2019-05-03T18:05:55.211Z,12.60
2019-05-03T18:08:35.541Z,12.60
2019-05-03T18:11:11.770Z,12.70
2019-05-03T18:13:40.087Z,12.70
2019-05-03T18:16:08.387Z,12.60
2019-05-03T18:18:36.728Z,12.50
2019-05-03T18:21:05.039Z,12.50
2019-05-03T18:23:35.012Z,12.60
2019-05-03T18:26:05.158Z,12.50
2019-05-03T18:28:35.366Z,12.60
2019-05-03T18:31:05.408Z,12.50
2019-05-03T18:33:33.837Z,12.30
2019-05-03T18:36:02.142Z,12.40
2019-05-03T18:38:32.106Z,12.40
2019-05-03T18:41:00.797Z,12.40
2019-05-03T18:43:34.587Z,12.40
2019-05-03T18:46:21.156Z,12.40
2019-05-03T18:48:49.476Z,12.30
2019-05-03T18:51:17.791Z,12.30
2019-05-03T18:53:46.119Z,12.30
2019-05-03T18:56:14.821Z,12.30
2019-05-03T18:58:44.866Z,12.30
2019-05-03T19:01:14.798Z,12.30
2019-05-03T19:03:45.234Z,12.20
2019-05-03T19:06:13.559Z,12.20
2019-05-03T19:08:44.765Z,12.20
2019-05-03T19:11:27.291Z,12.30
2019-05-03T19:13:59.733Z,12.30
2019-05-03T19:16:29.851Z,12.30
2019-05-03T19:18:58.141Z,12.30
2019-05-03T19:21:26.481Z,12.30
2019-05-03T19:23:54.784Z,12.20
2019-05-03T19:26:24.816Z,12.10
2019-05-03T19:28:54.879Z,12.20
2019-05-03T19:31:25.113Z,12.20
2019-05-03T19:33:55.040Z,12.20
2019-05-03T19:36:23.868Z,12.10
2019-05-03T19:38:52.230Z,12.10
2019-05-03T19:41:20.522Z,12.10
2019-05-03T19:43:48.866Z,12.10
2019-05-03T19:46:17.187Z,12.20
2019-05-03T19:48:45.481Z,12.20
2019-05-03T19:51:13.820Z,12.10
2019-05-03T19:53:54.869Z,12.10
2019-05-03T19:56:22.757Z,12.00
2019-05-03T19:58:52.751Z,12.00
2019-05-03T20:01:22.718Z,12.00
2019-05-03T20:03:58.866Z,11.90
2019-05-03T20:06:35.000Z,12.10
2019-05-03T20:09:10.829Z,12.00
2019-05-03T20:11:39.130Z,12.00
2019-05-03T20:14:07.442Z,11.90
2019-05-03T20:16:35.775Z,12.00
2019-05-03T20:19:17.217Z,11.80
2019-05-03T20:21:34.362Z,11.80
2019-05-03T20:24:02.695Z,11.80
2019-05-03T20:26:30.997Z,11.80
2019-05-03T20:28:59.307Z,11.80
2019-05-03T20:31:27.652Z,11.80
2019-05-03T20:33:55.971Z,11.80
2019-05-03T20:36:24.259Z,11.80
2019-05-03T20:38:52.597Z,11.80
2019-05-03T20:41:20.883Z,11.80
2019-05-03T20:43:59.644Z,11.80
2019-05-03T20:46:42.219Z,11.70
2019-05-03T20:49:12.270Z,11.70
2019-05-03T20:51:40.616Z,11.70
2019-05-03T20:54:08.918Z,11.80
2019-05-03T20:56:37.261Z,11.70
2019-05-03T20:59:05.564Z,11.70
2019-05-03T21:01:34.769Z,11.80
2019-05-03T21:04:04.780Z,11.70
2019-05-03T21:06:35.847Z,11.70
2019-05-03T21:09:04.739Z,11.80
2019-05-03T21:11:33.092Z,11.60
2019-05-03T21:14:01.390Z,11.60
2019-05-03T21:16:31.352Z,11.60
2019-05-03T21:19:04.966Z,11.70
2019-05-03T21:21:37.770Z,11.70
2019-05-03T21:26:35.811Z,11.60
2019-05-03T21:29:04.806Z,11.50
2019-05-03T21:31:35.201Z,11.40
2019-05-03T21:34:05.505Z,11.40
2019-05-03T21:36:34.864Z,11.40
2019-05-03T21:39:05.332Z,11.40
2019-05-03T21:41:35.256Z,11.30
2019-05-03T21:44:04.817Z,11.30
2019-05-03T21:46:37.830Z,11.30
2019-05-03T21:49:10.455Z,11.30
2019-05-03T21:51:38.783Z,11.30
2019-05-03T21:54:07.111Z,11.30
2019-05-03T21:56:35.711Z,11.30
2019-05-03T21:59:05.592Z,11.20
2019-05-03T22:01:37.471Z,11.30
2019-05-03T22:04:05.495Z,11.30
2019-05-03T22:06:35.060Z,11.20
2019-05-03T22:09:04.623Z,11.30
2019-05-03T22:11:33.026Z,11.20
2019-05-03T22:14:04.539Z,11.10
2019-05-03T22:16:40.342Z,11.10
2019-05-03T22:19:08.669Z,11.10
2019-05-03T22:21:45.280Z,11.00
2019-05-03T22:24:25.265Z,10.90
2019-05-03T22:26:55.518Z,10.90
2019-05-03T22:29:25.447Z,11.00
2019-05-03T22:31:54.830Z,10.90
2019-05-03T22:34:25.487Z,10.80
2019-05-03T22:39:25.036Z,10.80
2019-05-03T22:41:53.228Z,10.50
2019-05-03T22:44:21.871Z,10.60
2019-05-03T22:46:50.218Z,10.30
2019-05-03T22:49:18.532Z,10.40
2019-05-03T22:51:46.845Z,10.30
2019-05-03T22:54:15.477Z,10.40
2019-05-03T22:56:44.766Z,10.20
2019-05-03T22:59:14.725Z,10.20
2019-05-03T23:01:45.590Z,10.00
2019-05-03T23:04:14.638Z,10.40
2019-05-03T23:06:46.740Z,10.00
2019-05-03T23:09:15.654Z,10.00
2019-05-03T23:11:44.729Z,10.10
2019-05-03T23:14:15.088Z,9.90
2019-05-03T23:16:44.923Z,9.90
2019-05-03T23:19:14.883Z,10.00
2019-05-03T23:21:45.199Z,9.80
2019-05-03T23:24:15.422Z,9.90
2019-05-03T23:26:45.200Z,9.80
2019-05-03T23:29:13.720Z,9.90
2019-05-03T23:31:42.028Z,10.10
2019-05-03T23:34:10.396Z,9.80
2019-05-03T23:36:38.710Z,9.50
2019-05-03T23:39:07.931Z,10.00
2019-05-03T23:41:36.309Z,10.10
2019-05-03T23:44:04.830Z,9.90
2019-05-03T23:46:35.011Z,10.00
2019-05-03T23:49:03.331Z,9.90
2019-05-03T23:51:51.574Z,9.90
2019-05-03T23:54:19.888Z,9.90
2019-05-03T23:56:48.176Z,10.00
2019-05-03T23:59:16.835Z,9.90
